Laie, HI (96762)

7:53 AM HST on May 24, 2017 (GMT -1000)
Asia Pacific International School | | Change Station

Elev 65 ft 21.62 °N, 157.92 °W | Updated 30 seconds ago

Mostly Cloudy
Mostly Cloudy
79.5 °F
Feels Like 83 °F
N
6.8
Wind Variable Wind from ESE

Today
High -- | Low -- °F
--% Chance of Precip.
Yesterday
High -- | Low -- °F
Precip. -- in
Pressure 30.03 in
Visibility 10.0 miles
Clouds Scattered Clouds 3000 ft
Scattered Clouds 3700 ft
Mostly Cloudy 4500 ft
Heat Index 83 °F
Dew Point 70 °F
Humidity 74%
Rainfall 0.00 in
Snow Depth Not available.
5:49 AM 7:07 PM
Waning Crescent, 2% visible
METAR PHHI 241658Z AUTO 00000KT 10SM SCT030 SCT037 BKN045 20/19 A3005 RMK AO2 SLP168 T02030192 $
Pressure 30.03 in
Visibility 10.0 miles
Clouds Scattered Clouds 3000 ft
Scattered Clouds 3700 ft
Mostly Cloudy 4500 ft
Heat Index 83 °F
Dew Point 70 °F
Humidity 74%
Rainfall 0.00 in
Snow Depth Not available.
5:49 AM 7:07 PM
Waning Crescent, 2% visible
METAR PHHI 241658Z AUTO 00000KT 10SM SCT030 SCT037 BKN045 20/19 A3005 RMK AO2 SLP168 T02030192 $

Get Severe Weather Alerts

Thanks for signing up!

Be on the lookout for a verification email in your inbox.

You'll start receiving the daily forecast at 6 AM.

×

10-Day Weather Forecast

Almanac

Astronomy

May. 24, 2017 Rise Set
Actual Time
Civil Twilight
Nautical Twilight
Astronomical Twilight
Moon
Length of Visible Light
Length of Day
Tomorrow will be .
, % of the Moon is Illuminated

Today's Extremes

State Highs State Lows

Community

WunderPhotos

Category 6

Welcome to Category 6. This is the collective home for Weather Underground's featured writeups by Dr. Jeff Masters (right), Bob Henson (left), Chris Burt, and other regular contributors.

Nearby

Air Quality

  Air Quality AQ Index Pollutant
Not available.

Snow Depth

Station Depth Elevation

Earthquake Activity

City Distance Mag. Time & Date
Minimum magnitude displayed is 2.5.

Coastal Water Temperatures

Place Temperature

Stations

Nearby Weather Stations

Station Location Temp. Windchill Dew Point Humidity Wind Precip. Elev Updated Type
                   

Watches & Warnings

There are currently no watches in effect.